sensor_id;sensor_type;location;lat;lon;timestamp;P1;durP1;ratioP1;P2;durP2;ratioP2
14080;SDS011;7116;52.152;5.392;2023-07-08T00:01:52;5.32;;;3.38;;
14080;SDS011;7116;52.152;5.392;2023-07-08T00:04:18;3.97;;;2.60;;
14080;SDS011;7116;52.152;5.392;2023-07-08T00:06:43;5.30;;;3.10;;
14080;SDS011;7116;52.152;5.392;2023-07-08T00:09:11;4.63;;;3.20;;
14080;SDS011;7116;52.152;5.392;2023-07-08T00:11:37;7.68;;;3.50;;
14080;SDS011;7116;52.152;5.392;2023-07-08T00:14:02;4.70;;;3.10;;
14080;SDS011;7116;52.152;5.392;2023-07-08T00:16:27;5.70;;;3.10;;
14080;SDS011;7116;52.152;5.392;2023-07-08T00:18:52;4.93;;;2.93;;
14080;SDS011;7116;52.152;5.392;2023-07-08T00:21:18;3.77;;;2.80;;
14080;SDS011;7116;52.152;5.392;2023-07-08T00:23:46;5.87;;;3.57;;
14080;SDS011;7116;52.152;5.392;2023-07-08T00:28:44;6.85;;;3.28;;
14080;SDS011;7116;52.152;5.392;2023-07-08T00:31:09;4.97;;;3.30;;
14080;SDS011;7116;52.152;5.392;2023-07-08T00:33:35;4.65;;;3.28;;
14080;SDS011;7116;52.152;5.392;2023-07-08T00:36:00;5.60;;;3.07;;
14080;SDS011;7116;52.152;5.392;2023-07-08T00:38:27;5.13;;;3.17;;
14080;SDS011;7116;52.152;5.392;2023-07-08T00:40:59;5.47;;;3.15;;
14080;SDS011;7116;52.152;5.392;2023-07-08T00:43:30;4.63;;;3.05;;
14080;SDS011;7116;52.152;5.392;2023-07-08T00:46:01;4.47;;;3.43;;
14080;SDS011;7116;52.152;5.392;2023-07-08T00:48:29;4.93;;;3.00;;
14080;SDS011;7116;52.152;5.392;2023-07-08T00:50:55;4.95;;;3.22;;
14080;SDS011;7116;52.152;5.392;2023-07-08T00:53:28;4.40;;;3.30;;
14080;SDS011;7116;52.152;5.392;2023-07-08T00:55:55;4.80;;;3.42;;
14080;SDS011;7116;52.152;5.392;2023-07-08T00:58:21;5.55;;;3.45;;
14080;SDS011;7116;52.152;5.392;2023-07-08T01:00:47;5.65;;;3.30;;
14080;SDS011;7116;52.152;5.392;2023-07-08T01:03:15;4.27;;;3.17;;
14080;SDS011;7116;52.152;5.392;2023-07-08T01:05:40;5.85;;;3.55;;
14080;SDS011;7116;52.152;5.392;2023-07-08T01:08:05;4.80;;;3.20;;
14080;SDS011;7116;52.152;5.392;2023-07-08T01:10:37;5.03;;;3.53;;
14080;SDS011;7116;52.152;5.392;2023-07-08T01:13:04;5.60;;;3.33;;
14080;SDS011;7116;52.152;5.392;2023-07-08T01:15:31;4.55;;;3.63;;
14080;SDS011;7116;52.152;5.392;2023-07-08T01:17:58;5.30;;;3.00;;
14080;SDS011;7116;52.152;5.392;2023-07-08T01:20:23;4.50;;;3.28;;
14080;SDS011;7116;52.152;5.392;2023-07-08T01:22:50;6.43;;;3.40;;
14080;SDS011;7116;52.152;5.392;2023-07-08T01:25:15;8.27;;;3.70;;
14080;SDS011;7116;52.152;5.392;2023-07-08T01:27:42;5.57;;;3.20;;
14080;SDS011;7116;52.152;5.392;2023-07-08T01:30:08;5.80;;;3.30;;
14080;SDS011;7116;52.152;5.392;2023-07-08T01:32:39;10.50;;;3.13;;
14080;SDS011;7116;52.152;5.392;2023-07-08T01:35:05;7.45;;;3.33;;
14080;SDS011;7116;52.152;5.392;2023-07-08T01:37:33;4.73;;;3.27;;
14080;SDS011;7116;52.152;5.392;2023-07-08T01:40:13;6.15;;;3.45;;
14080;SDS011;7116;52.152;5.392;2023-07-08T01:42:38;6.75;;;3.55;;
14080;SDS011;7116;52.152;5.392;2023-07-08T01:45:08;6.53;;;3.57;;
14080;SDS011;7116;52.152;5.392;2023-07-08T01:47:35;6.28;;;3.00;;
14080;SDS011;7116;52.152;5.392;2023-07-08T01:50:00;4.80;;;3.60;;
14080;SDS011;7116;52.152;5.392;2023-07-08T01:52:25;4.83;;;3.47;;
14080;SDS011;7116;52.152;5.392;2023-07-08T01:54:54;7.13;;;3.70;;
14080;SDS011;7116;52.152;5.392;2023-07-08T01:57:19;5.25;;;3.40;;
14080;SDS011;7116;52.152;5.392;2023-07-08T01:59:45;8.07;;;4.47;;
14080;SDS011;7116;52.152;5.392;2023-07-08T02:02:12;6.55;;;3.88;;
14080;SDS011;7116;52.152;5.392;2023-07-08T02:04:37;5.37;;;4.27;;
14080;SDS011;7116;52.152;5.392;2023-07-08T02:07:02;4.97;;;3.23;;
14080;SDS011;7116;52.152;5.392;2023-07-08T02:09:28;4.37;;;3.23;;
14080;SDS011;7116;52.152;5.392;2023-07-08T02:11:53;5.07;;;3.47;;
14080;SDS011;7116;52.152;5.392;2023-07-08T02:14:19;4.40;;;3.30;;
14080;SDS011;7116;52.152;5.392;2023-07-08T02:16:44;4.73;;;3.30;;
14080;SDS011;7116;52.152;5.392;2023-07-08T02:19:10;8.07;;;4.03;;
14080;SDS011;7116;52.152;5.392;2023-07-08T02:21:35;5.38;;;3.03;;
14080;SDS011;7116;52.152;5.392;2023-07-08T02:24:00;8.87;;;3.43;;
14080;SDS011;7116;52.152;5.392;2023-07-08T02:26:25;5.73;;;3.40;;
14080;SDS011;7116;52.152;5.392;2023-07-08T02:28:51;6.25;;;3.70;;
14080;SDS011;7116;52.152;5.392;2023-07-08T02:31:16;5.03;;;3.87;;
14080;SDS011;7116;52.152;5.392;2023-07-08T02:33:42;6.03;;;3.50;;
14080;SDS011;7116;52.152;5.392;2023-07-08T02:36:07;6.13;;;3.20;;
14080;SDS011;7116;52.152;5.392;2023-07-08T02:38:33;4.73;;;3.20;;
14080;SDS011;7116;52.152;5.392;2023-07-08T02:40:59;5.30;;;3.40;;
14080;SDS011;7116;52.152;5.392;2023-07-08T02:43:24;5.00;;;3.08;;
14080;SDS011;7116;52.152;5.392;2023-07-08T02:45:50;4.53;;;3.80;;
14080;SDS011;7116;52.152;5.392;2023-07-08T02:48:16;5.15;;;3.70;;
14080;SDS011;7116;52.152;5.392;2023-07-08T02:50:41;4.70;;;3.70;;
14080;SDS011;7116;52.152;5.392;2023-07-08T02:53:07;7.67;;;3.43;;
14080;SDS011;7116;52.152;5.392;2023-07-08T02:55:32;5.70;;;3.80;;
14080;SDS011;7116;52.152;5.392;2023-07-08T02:57:57;5.63;;;3.00;;
14080;SDS011;7116;52.152;5.392;2023-07-08T03:00:22;4.47;;;3.13;;
14080;SDS011;7116;52.152;5.392;2023-07-08T03:02:47;5.20;;;3.43;;
14080;SDS011;7116;52.152;5.392;2023-07-08T03:05:13;6.63;;;3.57;;
14080;SDS011;7116;52.152;5.392;2023-07-08T03:07:38;6.23;;;3.30;;
14080;SDS011;7116;52.152;5.392;2023-07-08T03:10:03;7.10;;;3.77;;
14080;SDS011;7116;52.152;5.392;2023-07-08T03:12:29;5.53;;;3.50;;
14080;SDS011;7116;52.152;5.392;2023-07-08T03:14:54;4.47;;;3.27;;
14080;SDS011;7116;52.152;5.392;2023-07-08T03:17:19;5.00;;;3.73;;
14080;SDS011;7116;52.152;5.392;2023-07-08T03:19:45;6.33;;;3.87;;
14080;SDS011;7116;52.152;5.392;2023-07-08T03:22:10;4.80;;;3.47;;
14080;SDS011;7116;52.152;5.392;2023-07-08T03:24:35;4.67;;;3.80;;
14080;SDS011;7116;52.152;5.392;2023-07-08T03:27:01;5.22;;;3.25;;
14080;SDS011;7116;52.152;5.392;2023-07-08T03:29:30;7.45;;;4.05;;
14080;SDS011;7116;52.152;5.392;2023-07-08T03:31:55;5.63;;;3.50;;
14080;SDS011;7116;52.152;5.392;2023-07-08T03:34:20;5.43;;;4.10;;
14080;SDS011;7116;52.152;5.392;2023-07-08T03:36:46;5.53;;;3.70;;
14080;SDS011;7116;52.152;5.392;2023-07-08T03:39:16;6.55;;;4.00;;
14080;SDS011;7116;52.152;5.392;2023-07-08T03:41:41;4.25;;;3.15;;
14080;SDS011;7116;52.152;5.392;2023-07-08T03:44:06;5.23;;;3.03;;
14080;SDS011;7116;52.152;5.392;2023-07-08T03:46:32;7.87;;;3.67;;
14080;SDS011;7116;52.152;5.392;2023-07-08T03:48:57;4.50;;;3.37;;
14080;SDS011;7116;52.152;5.392;2023-07-08T03:51:24;5.30;;;3.63;;
14080;SDS011;7116;52.152;5.392;2023-07-08T03:53:50;5.15;;;3.40;;
14080;SDS011;7116;52.152;5.392;2023-07-08T03:56:16;7.00;;;3.55;;
14080;SDS011;7116;52.152;5.392;2023-07-08T03:58:42;5.13;;;3.50;;
14080;SDS011;7116;52.152;5.392;2023-07-08T04:01:16;6.63;;;3.77;;
14080;SDS011;7116;52.152;5.392;2023-07-08T04:03:42;5.72;;;3.45;;
14080;SDS011;7116;52.152;5.392;2023-07-08T04:06:07;6.57;;;3.40;;
14080;SDS011;7116;52.152;5.392;2023-07-08T04:08:33;5.07;;;3.40;;
14080;SDS011;7116;52.152;5.392;2023-07-08T04:10:58;4.47;;;3.30;;
14080;SDS011;7116;52.152;5.392;2023-07-08T04:13:23;5.03;;;3.77;;
14080;SDS011;7116;52.152;5.392;2023-07-08T04:15:51;6.00;;;3.57;;
14080;SDS011;7116;52.152;5.392;2023-07-08T04:18:18;4.97;;;3.80;;
14080;SDS011;7116;52.152;5.392;2023-07-08T04:20:43;7.23;;;3.90;;
14080;SDS011;7116;52.152;5.392;2023-07-08T04:23:09;8.33;;;3.80;;
14080;SDS011;7116;52.152;5.392;2023-07-08T04:25:34;4.37;;;3.70;;
14080;SDS011;7116;52.152;5.392;2023-07-08T04:27:59;6.90;;;3.57;;
14080;SDS011;7116;52.152;5.392;2023-07-08T04:30:25;9.63;;;3.70;;
14080;SDS011;7116;52.152;5.392;2023-07-08T04:32:51;6.63;;;3.45;;
14080;SDS011;7116;52.152;5.392;2023-07-08T04:35:16;4.95;;;3.65;;
14080;SDS011;7116;52.152;5.392;2023-07-08T04:37:42;4.10;;;3.47;;
14080;SDS011;7116;52.152;5.392;2023-07-08T04:40:13;4.90;;;3.37;;
14080;SDS011;7116;52.152;5.392;2023-07-08T04:42:40;4.82;;;3.22;;
14080;SDS011;7116;52.152;5.392;2023-07-08T04:45:07;4.35;;;2.92;;
14080;SDS011;7116;52.152;5.392;2023-07-08T04:47:32;5.73;;;3.53;;
14080;SDS011;7116;52.152;5.392;2023-07-08T04:49:58;7.93;;;4.00;;
14080;SDS011;7116;52.152;5.392;2023-07-08T04:52:23;4.87;;;3.50;;
14080;SDS011;7116;52.152;5.392;2023-07-08T04:54:48;9.47;;;4.07;;
14080;SDS011;7116;52.152;5.392;2023-07-08T04:57:13;5.57;;;3.37;;
14080;SDS011;7116;52.152;5.392;2023-07-08T04:59:41;5.28;;;3.58;;
14080;SDS011;7116;52.152;5.392;2023-07-08T05:02:07;5.73;;;3.67;;
14080;SDS011;7116;52.152;5.392;2023-07-08T05:04:32;8.70;;;3.83;;
14080;SDS011;7116;52.152;5.392;2023-07-08T05:06:58;6.40;;;3.80;;
14080;SDS011;7116;52.152;5.392;2023-07-08T05:09:23;5.00;;;3.07;;
14080;SDS011;7116;52.152;5.392;2023-07-08T05:11:50;9.07;;;3.20;;
14080;SDS011;7116;52.152;5.392;2023-07-08T05:14:16;6.63;;;3.47;;
14080;SDS011;7116;52.152;5.392;2023-07-08T05:16:41;5.67;;;3.33;;
14080;SDS011;7116;52.152;5.392;2023-07-08T05:19:06;7.63;;;3.27;;
14080;SDS011;7116;52.152;5.392;2023-07-08T05:21:32;6.20;;;3.45;;
14080;SDS011;7116;52.152;5.392;2023-07-08T05:24:00;5.80;;;3.37;;
14080;SDS011;7116;52.152;5.392;2023-07-08T05:26:25;7.95;;;3.70;;
14080;SDS011;7116;52.152;5.392;2023-07-08T05:28:51;6.07;;;3.63;;
14080;SDS011;7116;52.152;5.392;2023-07-08T05:31:16;4.80;;;3.80;;
14080;SDS011;7116;52.152;5.392;2023-07-08T05:33:41;5.47;;;3.50;;
14080;SDS011;7116;52.152;5.392;2023-07-08T05:36:06;8.27;;;3.67;;
14080;SDS011;7116;52.152;5.392;2023-07-08T05:38:32;6.03;;;3.40;;
14080;SDS011;7116;52.152;5.392;2023-07-08T05:40:58;4.83;;;3.17;;
14080;SDS011;7116;52.152;5.392;2023-07-08T05:43:24;6.43;;;4.00;;
14080;SDS011;7116;52.152;5.392;2023-07-08T05:45:49;8.90;;;3.73;;
14080;SDS011;7116;52.152;5.392;2023-07-08T05:48:14;8.80;;;4.00;;
14080;SDS011;7116;52.152;5.392;2023-07-08T05:50:40;5.80;;;3.47;;
14080;SDS011;7116;52.152;5.392;2023-07-08T05:53:05;6.23;;;3.73;;
14080;SDS011;7116;52.152;5.392;2023-07-08T05:55:31;7.80;;;3.17;;
14080;SDS011;7116;52.152;5.392;2023-07-08T05:57:57;5.38;;;3.40;;
14080;SDS011;7116;52.152;5.392;2023-07-08T06:00:22;6.53;;;3.20;;
14080;SDS011;7116;52.152;5.392;2023-07-08T06:02:47;6.67;;;3.90;;
14080;SDS011;7116;52.152;5.392;2023-07-08T06:05:12;5.10;;;3.23;;
14080;SDS011;7116;52.152;5.392;2023-07-08T06:07:38;5.30;;;3.57;;
14080;SDS011;7116;52.152;5.392;2023-07-08T06:10:03;5.83;;;3.50;;
14080;SDS011;7116;52.152;5.392;2023-07-08T06:12:29;4.57;;;3.20;;
14080;SDS011;7116;52.152;5.392;2023-07-08T06:14:55;4.95;;;3.50;;
14080;SDS011;7116;52.152;5.392;2023-07-08T06:17:20;6.77;;;3.13;;
14080;SDS011;7116;52.152;5.392;2023-07-08T06:19:45;5.70;;;3.63;;
14080;SDS011;7116;52.152;5.392;2023-07-08T06:22:10;8.93;;;3.40;;
14080;SDS011;7116;52.152;5.392;2023-07-08T06:24:36;6.33;;;3.60;;
14080;SDS011;7116;52.152;5.392;2023-07-08T06:27:01;5.97;;;3.40;;
14080;SDS011;7116;52.152;5.392;2023-07-08T06:29:26;4.80;;;3.40;;
14080;SDS011;7116;52.152;5.392;2023-07-08T06:31:51;7.43;;;3.40;;
14080;SDS011;7116;52.152;5.392;2023-07-08T06:34:17;7.73;;;2.97;;
14080;SDS011;7116;52.152;5.392;2023-07-08T06:36:42;7.90;;;3.38;;
14080;SDS011;7116;52.152;5.392;2023-07-08T06:39:08;5.20;;;3.60;;
14080;SDS011;7116;52.152;5.392;2023-07-08T06:41:36;4.68;;;3.20;;
14080;SDS011;7116;52.152;5.392;2023-07-08T06:44:01;5.30;;;2.90;;
14080;SDS011;7116;52.152;5.392;2023-07-08T06:46:26;6.30;;;3.10;;
14080;SDS011;7116;52.152;5.392;2023-07-08T06:48:51;8.10;;;3.30;;
14080;SDS011;7116;52.152;5.392;2023-07-08T06:51:18;6.65;;;3.70;;
14080;SDS011;7116;52.152;5.392;2023-07-08T06:53:43;5.80;;;3.80;;
14080;SDS011;7116;52.152;5.392;2023-07-08T06:56:09;6.13;;;3.57;;
14080;SDS011;7116;52.152;5.392;2023-07-08T06:58:34;11.70;;;3.50;;
14080;SDS011;7116;52.152;5.392;2023-07-08T07:01:00;5.67;;;3.03;;
14080;SDS011;7116;52.152;5.392;2023-07-08T07:03:25;7.83;;;3.53;;
14080;SDS011;7116;52.152;5.392;2023-07-08T07:05:50;5.30;;;2.90;;
14080;SDS011;7116;52.152;5.392;2023-07-08T07:08:15;5.77;;;3.40;;
14080;SDS011;7116;52.152;5.392;2023-07-08T07:10:40;4.97;;;3.50;;
14080;SDS011;7116;52.152;5.392;2023-07-08T07:13:06;8.10;;;3.63;;
14080;SDS011;7116;52.152;5.392;2023-07-08T07:15:31;8.33;;;3.57;;
14080;SDS011;7116;52.152;5.392;2023-07-08T07:17:57;6.00;;;3.80;;
14080;SDS011;7116;52.152;5.392;2023-07-08T07:20:22;5.67;;;3.63;;
14080;SDS011;7116;52.152;5.392;2023-07-08T07:22:47;8.50;;;3.60;;
14080;SDS011;7116;52.152;5.392;2023-07-08T07:25:15;7.47;;;3.37;;
14080;SDS011;7116;52.152;5.392;2023-07-08T07:27:40;5.88;;;3.35;;
14080;SDS011;7116;52.152;5.392;2023-07-08T07:30:06;4.93;;;3.23;;
14080;SDS011;7116;52.152;5.392;2023-07-08T07:32:31;5.00;;;3.00;;
14080;SDS011;7116;52.152;5.392;2023-07-08T07:34:57;4.30;;;3.10;;
14080;SDS011;7116;52.152;5.392;2023-07-08T07:37:24;7.22;;;3.80;;
14080;SDS011;7116;52.152;5.392;2023-07-08T07:39:49;5.67;;;3.60;;
14080;SDS011;7116;52.152;5.392;2023-07-08T07:42:15;5.93;;;3.13;;
14080;SDS011;7116;52.152;5.392;2023-07-08T07:44:40;6.75;;;3.40;;
14080;SDS011;7116;52.152;5.392;2023-07-08T07:47:06;16.00;;;3.90;;
14080;SDS011;7116;52.152;5.392;2023-07-08T07:49:32;5.47;;;3.75;;
14080;SDS011;7116;52.152;5.392;2023-07-08T07:51:57;5.10;;;3.23;;
14080;SDS011;7116;52.152;5.392;2023-07-08T07:54:23;6.27;;;3.70;;
14080;SDS011;7116;52.152;5.392;2023-07-08T07:56:48;5.93;;;3.97;;
14080;SDS011;7116;52.152;5.392;2023-07-08T07:59:13;5.60;;;3.70;;
14080;SDS011;7116;52.152;5.392;2023-07-08T08:01:38;12.80;;;4.50;;
14080;SDS011;7116;52.152;5.392;2023-07-08T08:04:04;6.13;;;3.90;;
14080;SDS011;7116;52.152;5.392;2023-07-08T08:06:30;8.50;;;3.60;;
14080;SDS011;7116;52.152;5.392;2023-07-08T08:08:57;5.55;;;3.60;;
14080;SDS011;7116;52.152;5.392;2023-07-08T08:11:22;5.43;;;3.77;;
14080;SDS011;7116;52.152;5.392;2023-07-08T08:13:50;8.75;;;4.30;;
14080;SDS011;7116;52.152;5.392;2023-07-08T08:16:15;5.50;;;3.57;;
14080;SDS011;7116;52.152;5.392;2023-07-08T08:18:43;5.53;;;3.63;;
14080;SDS011;7116;52.152;5.392;2023-07-08T08:21:08;6.40;;;3.60;;
14080;SDS011;7116;52.152;5.392;2023-07-08T08:23:33;6.90;;;3.70;;
14080;SDS011;7116;52.152;5.392;2023-07-08T08:25:58;8.43;;;3.63;;
14080;SDS011;7116;52.152;5.392;2023-07-08T08:28:23;8.23;;;3.53;;
14080;SDS011;7116;52.152;5.392;2023-07-08T08:30:49;7.50;;;3.60;;
14080;SDS011;7116;52.152;5.392;2023-07-08T08:33:14;8.23;;;3.60;;
14080;SDS011;7116;52.152;5.392;2023-07-08T08:35:41;9.98;;;3.63;;
14080;SDS011;7116;52.152;5.392;2023-07-08T08:38:06;4.57;;;3.50;;
14080;SDS011;7116;52.152;5.392;2023-07-08T08:40:31;5.30;;;3.40;;
14080;SDS011;7116;52.152;5.392;2023-07-08T08:43:04;7.28;;;3.33;;
14080;SDS011;7116;52.152;5.392;2023-07-08T08:45:34;5.57;;;3.70;;
14080;SDS011;7116;52.152;5.392;2023-07-08T08:48:03;7.80;;;3.60;;
14080;SDS011;7116;52.152;5.392;2023-07-08T08:50:41;8.15;;;3.70;;
14080;SDS011;7116;52.152;5.392;2023-07-08T08:53:09;4.47;;;3.20;;
14080;SDS011;7116;52.152;5.392;2023-07-08T08:55:35;8.95;;;3.90;;
14080;SDS011;7116;52.152;5.392;2023-07-08T09:00:51;6.20;;;3.33;;
14080;SDS011;7116;52.152;5.392;2023-07-08T09:03:17;5.22;;;2.90;;
14080;SDS011;7116;52.152;5.392;2023-07-08T09:05:43;10.82;;;3.80;;
14080;SDS011;7116;52.152;5.392;2023-07-08T09:08:18;8.35;;;3.80;;
14080;SDS011;7116;52.152;5.392;2023-07-08T09:15:57;6.55;;;3.63;;
14080;SDS011;7116;52.152;5.392;2023-07-08T09:18:25;5.20;;;2.90;;
14080;SDS011;7116;52.152;5.392;2023-07-08T09:20:52;6.18;;;3.72;;
14080;SDS011;7116;52.152;5.392;2023-07-08T09:23:29;7.18;;;3.95;;
14080;SDS011;7116;52.152;5.392;2023-07-08T09:28:52;6.70;;;3.50;;
14080;SDS011;7116;52.152;5.392;2023-07-08T09:31:25;7.30;;;4.00;;
14080;SDS011;7116;52.152;5.392;2023-07-08T09:33:51;8.93;;;4.60;;
14080;SDS011;7116;52.152;5.392;2023-07-08T09:36:22;5.80;;;3.85;;
14080;SDS011;7116;52.152;5.392;2023-07-08T09:38:48;8.80;;;3.97;;
14080;SDS011;7116;52.152;5.392;2023-07-08T09:41:16;8.13;;;4.27;;
14080;SDS011;7116;52.152;5.392;2023-07-08T09:43:42;5.93;;;3.92;;
14080;SDS011;7116;52.152;5.392;2023-07-08T09:46:08;5.73;;;4.17;;
14080;SDS011;7116;52.152;5.392;2023-07-08T09:48:36;6.63;;;4.15;;
14080;SDS011;7116;52.152;5.392;2023-07-08T09:51:01;7.07;;;3.93;;
14080;SDS011;7116;52.152;5.392;2023-07-08T09:53:27;6.55;;;4.00;;
14080;SDS011;7116;52.152;5.392;2023-07-08T09:55:53;6.57;;;4.70;;
14080;SDS011;7116;52.152;5.392;2023-07-08T09:58:20;8.35;;;3.92;;
14080;SDS011;7116;52.152;5.392;2023-07-08T10:00:49;8.77;;;4.60;;
14080;SDS011;7116;52.152;5.392;2023-07-08T10:03:19;6.00;;;4.33;;
14080;SDS011;7116;52.152;5.392;2023-07-08T10:05:46;7.70;;;4.93;;
14080;SDS011;7116;52.152;5.392;2023-07-08T10:08:17;7.40;;;4.93;;
14080;SDS011;7116;52.152;5.392;2023-07-08T10:10:42;10.90;;;4.47;;
14080;SDS011;7116;52.152;5.392;2023-07-08T10:15:37;8.00;;;4.90;;
14080;SDS011;7116;52.152;5.392;2023-07-08T10:18:04;8.60;;;4.57;;
14080;SDS011;7116;52.152;5.392;2023-07-08T10:23:36;14.80;;;4.68;;
14080;SDS011;7116;52.152;5.392;2023-07-08T10:26:24;7.70;;;4.70;;
14080;SDS011;7116;52.152;5.392;2023-07-08T10:28:54;7.15;;;4.65;;
14080;SDS011;7116;52.152;5.392;2023-07-08T10:31:27;6.80;;;4.53;;
14080;SDS011;7116;52.152;5.392;2023-07-08T10:36:26;6.37;;;4.73;;
14080;SDS011;7116;52.152;5.392;2023-07-08T10:41:35;10.63;;;5.27;;
14080;SDS011;7116;52.152;5.392;2023-07-08T10:44:07;7.70;;;5.20;;
14080;SDS011;7116;52.152;5.392;2023-07-08T10:46:38;11.60;;;5.72;;
14080;SDS011;7116;52.152;5.392;2023-07-08T10:49:08;7.82;;;5.05;;
14080;SDS011;7116;52.152;5.392;2023-07-08T10:56:39;10.83;;;5.97;;
14080;SDS011;7116;52.152;5.392;2023-07-08T11:01:57;9.13;;;5.80;;
14080;SDS011;7116;52.152;5.392;2023-07-08T11:07:28;7.30;;;4.97;;
14080;SDS011;7116;52.152;5.392;2023-07-08T11:10:00;10.10;;;5.60;;
14080;SDS011;7116;52.152;5.392;2023-07-08T11:12:45;10.02;;;5.60;;
14080;SDS011;7116;52.152;5.392;2023-07-08T11:15:14;11.48;;;5.80;;
14080;SDS011;7116;52.152;5.392;2023-07-08T11:20:22;10.73;;;5.15;;
14080;SDS011;7116;52.152;5.392;2023-07-08T11:22:50;6.73;;;4.90;;
14080;SDS011;7116;52.152;5.392;2023-07-08T11:25:18;10.20;;;5.68;;
14080;SDS011;7116;52.152;5.392;2023-07-08T11:27:44;7.72;;;5.10;;
14080;SDS011;7116;52.152;5.392;2023-07-08T11:32:36;9.07;;;5.77;;
14080;SDS011;7116;52.152;5.392;2023-07-08T11:35:05;7.80;;;5.32;;
14080;SDS011;7116;52.152;5.392;2023-07-08T11:37:31;7.00;;;4.97;;
14080;SDS011;7116;52.152;5.392;2023-07-08T11:42:46;8.40;;;5.40;;
14080;SDS011;7116;52.152;5.392;2023-07-08T11:47:47;11.27;;;6.18;;
14080;SDS011;7116;52.152;5.392;2023-07-08T11:52:50;13.48;;;6.30;;
14080;SDS011;7116;52.152;5.392;2023-07-08T11:55:20;7.67;;;5.23;;
14080;SDS011;7116;52.152;5.392;2023-07-08T11:57:46;9.30;;;5.75;;
14080;SDS011;7116;52.152;5.392;2023-07-08T12:02:50;8.93;;;5.40;;
14080;SDS011;7116;52.152;5.392;2023-07-08T12:05:16;8.07;;;4.90;;
14080;SDS011;7116;52.152;5.392;2023-07-08T12:07:45;7.53;;;5.63;;
14080;SDS011;7116;52.152;5.392;2023-07-08T12:10:13;10.38;;;5.40;;
14080;SDS011;7116;52.152;5.392;2023-07-08T12:12:41;8.93;;;5.40;;
14080;SDS011;7116;52.152;5.392;2023-07-08T12:17:35;10.77;;;5.00;;
14080;SDS011;7116;52.152;5.392;2023-07-08T12:20:01;10.10;;;5.80;;
14080;SDS011;7116;52.152;5.392;2023-07-08T12:22:28;8.48;;;5.60;;
14080;SDS011;7116;52.152;5.392;2023-07-08T12:24:53;8.60;;;5.40;;
14080;SDS011;7116;52.152;5.392;2023-07-08T12:27:21;10.65;;;5.88;;
14080;SDS011;7116;52.152;5.392;2023-07-08T12:29:46;8.25;;;5.55;;
14080;SDS011;7116;52.152;5.392;2023-07-08T12:32:11;13.60;;;5.40;;
14080;SDS011;7116;52.152;5.392;2023-07-08T12:34:37;8.88;;;6.03;;
14080;SDS011;7116;52.152;5.392;2023-07-08T12:37:02;7.93;;;5.67;;
14080;SDS011;7116;52.152;5.392;2023-07-08T12:39:28;8.97;;;5.53;;
14080;SDS011;7116;52.152;5.392;2023-07-08T12:41:57;11.50;;;6.45;;
14080;SDS011;7116;52.152;5.392;2023-07-08T12:44:23;14.87;;;6.37;;
14080;SDS011;7116;52.152;5.392;2023-07-08T12:46:50;9.53;;;5.90;;
14080;SDS011;7116;52.152;5.392;2023-07-08T12:49:17;11.43;;;6.22;;
14080;SDS011;7116;52.152;5.392;2023-07-08T12:51:44;10.60;;;5.47;;
14080;SDS011;7116;52.152;5.392;2023-07-08T12:54:10;7.80;;;5.50;;
14080;SDS011;7116;52.152;5.392;2023-07-08T12:56:35;13.20;;;6.03;;
14080;SDS011;7116;52.152;5.392;2023-07-08T12:59:01;10.88;;;6.13;;
14080;SDS011;7116;52.152;5.392;2023-07-08T13:01:28;7.83;;;5.63;;
14080;SDS011;7116;52.152;5.392;2023-07-08T13:03:55;9.05;;;6.00;;
14080;SDS011;7116;52.152;5.392;2023-07-08T13:06:23;10.13;;;5.67;;
14080;SDS011;7116;52.152;5.392;2023-07-08T13:08:48;8.32;;;5.65;;
14080;SDS011;7116;52.152;5.392;2023-07-08T13:11:15;8.65;;;5.72;;
14080;SDS011;7116;52.152;5.392;2023-07-08T13:13:47;9.17;;;5.93;;
14080;SDS011;7116;52.152;5.392;2023-07-08T13:16:13;7.97;;;5.35;;
14080;SDS011;7116;52.152;5.392;2023-07-08T13:18:39;8.10;;;5.40;;
14080;SDS011;7116;52.152;5.392;2023-07-08T13:21:05;11.20;;;6.82;;
14080;SDS011;7116;52.152;5.392;2023-07-08T13:23:31;11.60;;;6.27;;
14080;SDS011;7116;52.152;5.392;2023-07-08T13:25:57;9.63;;;5.30;;
14080;SDS011;7116;52.152;5.392;2023-07-08T13:28:27;12.00;;;5.80;;
14080;SDS011;7116;52.152;5.392;2023-07-08T13:30:53;11.73;;;6.07;;
14080;SDS011;7116;52.152;5.392;2023-07-08T13:33:19;8.55;;;5.57;;
14080;SDS011;7116;52.152;5.392;2023-07-08T13:35:44;9.70;;;6.20;;
14080;SDS011;7116;52.152;5.392;2023-07-08T13:38:14;10.82;;;5.85;;
14080;SDS011;7116;52.152;5.392;2023-07-08T13:40:42;10.77;;;6.00;;
14080;SDS011;7116;52.152;5.392;2023-07-08T13:43:08;9.02;;;5.50;;
14080;SDS011;7116;52.152;5.392;2023-07-08T13:45:34;13.13;;;6.47;;
14080;SDS011;7116;52.152;5.392;2023-07-08T13:48:00;9.73;;;5.80;;
14080;SDS011;7116;52.152;5.392;2023-07-08T13:50:27;10.27;;;5.87;;
14080;SDS011;7116;52.152;5.392;2023-07-08T13:52:54;10.50;;;5.40;;
14080;SDS011;7116;52.152;5.392;2023-07-08T13:55:21;8.45;;;4.95;;
14080;SDS011;7116;52.152;5.392;2023-07-08T13:57:55;8.00;;;5.10;;
14080;SDS011;7116;52.152;5.392;2023-07-08T14:00:20;11.23;;;6.20;;
14080;SDS011;7116;52.152;5.392;2023-07-08T14:02:45;8.97;;;5.53;;
14080;SDS011;7116;52.152;5.392;2023-07-08T14:05:11;9.00;;;5.05;;
14080;SDS011;7116;52.152;5.392;2023-07-08T14:07:37;7.47;;;5.00;;
14080;SDS011;7116;52.152;5.392;2023-07-08T14:10:04;9.17;;;5.33;;
14080;SDS011;7116;52.152;5.392;2023-07-08T14:12:32;10.13;;;6.03;;
14080;SDS011;7116;52.152;5.392;2023-07-08T14:14:58;8.20;;;5.07;;
14080;SDS011;7116;52.152;5.392;2023-07-08T14:17:24;11.63;;;5.37;;
14080;SDS011;7116;52.152;5.392;2023-07-08T14:19:50;11.25;;;5.65;;
14080;SDS011;7116;52.152;5.392;2023-07-08T14:24:49;7.88;;;5.07;;
14080;SDS011;7116;52.152;5.392;2023-07-08T14:27:15;8.93;;;5.47;;
14080;SDS011;7116;52.152;5.392;2023-07-08T14:29:42;9.23;;;5.30;;
14080;SDS011;7116;52.152;5.392;2023-07-08T14:32:14;7.27;;;4.67;;
14080;SDS011;7116;52.152;5.392;2023-07-08T14:34:40;9.48;;;5.65;;
14080;SDS011;7116;52.152;5.392;2023-07-08T14:37:12;7.23;;;4.60;;
14080;SDS011;7116;52.152;5.392;2023-07-08T14:39:38;9.98;;;4.97;;
14080;SDS011;7116;52.152;5.392;2023-07-08T14:42:04;7.20;;;5.00;;
14080;SDS011;7116;52.152;5.392;2023-07-08T14:44:31;8.77;;;4.70;;
14080;SDS011;7116;52.152;5.392;2023-07-08T14:46:56;9.55;;;5.25;;
14080;SDS011;7116;52.152;5.392;2023-07-08T14:49:23;10.00;;;5.18;;
14080;SDS011;7116;52.152;5.392;2023-07-08T14:51:49;11.47;;;5.40;;
14080;SDS011;7116;52.152;5.392;2023-07-08T14:54:14;11.00;;;5.20;;
14080;SDS011;7116;52.152;5.392;2023-07-08T14:56:39;9.70;;;5.27;;
14080;SDS011;7116;52.152;5.392;2023-07-08T14:59:05;8.47;;;5.30;;
14080;SDS011;7116;52.152;5.392;2023-07-08T15:01:31;7.45;;;4.95;;
14080;SDS011;7116;52.152;5.392;2023-07-08T15:03:56;8.03;;;5.37;;
14080;SDS011;7116;52.152;5.392;2023-07-08T15:06:22;9.60;;;5.90;;
14080;SDS011;7116;52.152;5.392;2023-07-08T15:08:47;9.10;;;6.03;;
14080;SDS011;7116;52.152;5.392;2023-07-08T15:11:12;8.15;;;4.82;;
14080;SDS011;7116;52.152;5.392;2023-07-08T15:13:38;10.77;;;5.77;;
14080;SDS011;7116;52.152;5.392;2023-07-08T15:16:04;9.73;;;5.43;;
14080;SDS011;7116;52.152;5.392;2023-07-08T15:18:29;11.60;;;5.20;;
14080;SDS011;7116;52.152;5.392;2023-07-08T15:20:54;13.27;;;5.37;;
14080;SDS011;7116;52.152;5.392;2023-07-08T15:23:19;7.83;;;5.10;;
14080;SDS011;7116;52.152;5.392;2023-07-08T15:25:45;9.03;;;5.07;;
14080;SDS011;7116;52.152;5.392;2023-07-08T15:28:15;10.80;;;5.40;;
14080;SDS011;7116;52.152;5.392;2023-07-08T15:30:41;8.20;;;5.30;;
14080;SDS011;7116;52.152;5.392;2023-07-08T15:33:08;9.57;;;5.17;;
14080;SDS011;7116;52.152;5.392;2023-07-08T15:35:33;11.70;;;5.68;;
14080;SDS011;7116;52.152;5.392;2023-07-08T15:37:59;7.57;;;5.07;;
14080;SDS011;7116;52.152;5.392;2023-07-08T15:40:24;9.55;;;5.43;;
14080;SDS011;7116;52.152;5.392;2023-07-08T15:42:51;8.17;;;5.73;;
14080;SDS011;7116;52.152;5.392;2023-07-08T15:47:45;8.95;;;5.25;;
14080;SDS011;7116;52.152;5.392;2023-07-08T15:50:16;10.13;;;5.70;;
14080;SDS011;7116;52.152;5.392;2023-07-08T15:52:42;10.85;;;5.55;;
14080;SDS011;7116;52.152;5.392;2023-07-08T15:55:08;7.43;;;5.37;;